sensor_id;sensor_type;location;lat;lon;timestamp;temperature;humidity
29917;DHT22;16786;49.466;11.068;2023-07-13T00:01:56;21.80;99.90
29917;DHT22;16786;49.466;11.068;2023-07-13T00:04:24;21.80;99.90
29917;DHT22;16786;49.466;11.068;2023-07-13T00:06:57;21.80;99.90
29917;DHT22;16786;49.466;11.068;2023-07-13T00:09:25;21.70;99.90
29917;DHT22;16786;49.466;11.068;2023-07-13T00:11:56;21.70;99.90
29917;DHT22;16786;49.466;11.068;2023-07-13T00:14:25;21.60;99.90
29917;DHT22;16786;49.466;11.068;2023-07-13T00:16:53;21.60;99.90
29917;DHT22;16786;49.466;11.068;2023-07-13T00:19:20;21.70;99.90
29917;DHT22;16786;49.466;11.068;2023-07-13T00:21:48;21.60;99.90
29917;DHT22;16786;49.466;11.068;2023-07-13T00:24:17;21.50;99.90
29917;DHT22;16786;49.466;11.068;2023-07-13T00:26:51;21.40;99.90
29917;DHT22;16786;49.466;11.068;2023-07-13T00:29:19;21.40;99.90
29917;DHT22;16786;49.466;11.068;2023-07-13T00:31:48;21.40;99.90
29917;DHT22;16786;49.466;11.068;2023-07-13T00:34:16;21.40;99.90
29917;DHT22;16786;49.466;11.068;2023-07-13T00:36:43;21.30;99.90
29917;DHT22;16786;49.466;11.068;2023-07-13T00:39:12;21.30;99.90
29917;DHT22;16786;49.466;11.068;2023-07-13T00:41:39;21.30;99.90
29917;DHT22;16786;49.466;11.068;2023-07-13T00:44:13;21.20;99.90
29917;DHT22;16786;49.466;11.068;2023-07-13T00:46:41;21.30;99.90
29917;DHT22;16786;49.466;11.068;2023-07-13T00:49:20;21.20;99.90
29917;DHT22;16786;49.466;11.068;2023-07-13T00:51:52;21.30;99.90
29917;DHT22;16786;49.466;11.068;2023-07-13T00:54:24;21.20;99.90
29917;DHT22;16786;49.466;11.068;2023-07-13T00:56:55;21.20;99.90
29917;DHT22;16786;49.466;11.068;2023-07-13T00:59:25;21.20;99.90
29917;DHT22;16786;49.466;11.068;2023-07-13T01:01:53;21.20;99.90
29917;DHT22;16786;49.466;11.068;2023-07-13T01:04:24;21.10;99.90
29917;DHT22;16786;49.466;11.068;2023-07-13T01:06:52;21.10;99.90
29917;DHT22;16786;49.466;11.068;2023-07-13T01:09:21;21.10;99.90
29917;DHT22;16786;49.466;11.068;2023-07-13T01:11:48;21.10;99.90
29917;DHT22;16786;49.466;11.068;2023-07-13T01:14:16;20.90;99.90
29917;DHT22;16786;49.466;11.068;2023-07-13T01:16:45;20.90;99.90
29917;DHT22;16786;49.466;11.068;2023-07-13T01:19:35;20.80;99.90
29917;DHT22;16786;49.466;11.068;2023-07-13T01:22:24;20.80;99.90
29917;DHT22;16786;49.466;11.068;2023-07-13T01:24:54;20.70;99.90
29917;DHT22;16786;49.466;11.068;2023-07-13T01:27:24;20.70;99.90
29917;DHT22;16786;49.466;11.068;2023-07-13T01:29:53;20.70;99.90
29917;DHT22;16786;49.466;11.068;2023-07-13T01:32:30;20.60;99.90
29917;DHT22;16786;49.466;11.068;2023-07-13T01:35:00;20.60;99.90
29917;DHT22;16786;49.466;11.068;2023-07-13T01:37:27;20.50;99.90
29917;DHT22;16786;49.466;11.068;2023-07-13T01:39:54;20.50;99.90
29917;DHT22;16786;49.466;11.068;2023-07-13T01:42:22;20.40;99.90
29917;DHT22;16786;49.466;11.068;2023-07-13T01:44:49;20.40;99.90
29917;DHT22;16786;49.466;11.068;2023-07-13T01:47:16;20.40;99.90
29917;DHT22;16786;49.466;11.068;2023-07-13T01:49:45;20.20;99.90
29917;DHT22;16786;49.466;11.068;2023-07-13T01:52:14;20.20;99.90
29917;DHT22;16786;49.466;11.068;2023-07-13T01:54:41;20.10;99.90
29917;DHT22;16786;49.466;11.068;2023-07-13T01:57:09;20.10;99.90
29917;DHT22;16786;49.466;11.068;2023-07-13T01:59:36;20.00;99.90
29917;DHT22;16786;49.466;11.068;2023-07-13T02:02:06;20.00;99.90
29917;DHT22;16786;49.466;11.068;2023-07-13T02:04:34;20.00;99.90
29917;DHT22;16786;49.466;11.068;2023-07-13T02:07:01;19.90;99.90
29917;DHT22;16786;49.466;11.068;2023-07-13T02:09:29;19.90;99.90
29917;DHT22;16786;49.466;11.068;2023-07-13T02:11:56;19.80;99.90
29917;DHT22;16786;49.466;11.068;2023-07-13T02:14:30;19.80;99.90
29917;DHT22;16786;49.466;11.068;2023-07-13T02:16:57;19.80;99.90
29917;DHT22;16786;49.466;11.068;2023-07-13T02:19:24;19.70;99.90
29917;DHT22;16786;49.466;11.068;2023-07-13T02:21:52;19.70;99.90
29917;DHT22;16786;49.466;11.068;2023-07-13T02:24:19;19.70;99.90
29917;DHT22;16786;49.466;11.068;2023-07-13T02:26:48;19.60;99.90
29917;DHT22;16786;49.466;11.068;2023-07-13T02:29:15;19.60;99.90
29917;DHT22;16786;49.466;11.068;2023-07-13T02:31:45;19.60;99.90
29917;DHT22;16786;49.466;11.068;2023-07-13T02:34:12;19.50;99.90
29917;DHT22;16786;49.466;11.068;2023-07-13T02:36:39;19.50;99.90
29917;DHT22;16786;49.466;11.068;2023-07-13T02:39:07;19.40;99.90
29917;DHT22;16786;49.466;11.068;2023-07-13T02:41:35;19.40;99.90
29917;DHT22;16786;49.466;11.068;2023-07-13T02:44:03;19.30;99.90
29917;DHT22;16786;49.466;11.068;2023-07-13T02:46:32;19.30;99.90
29917;DHT22;16786;49.466;11.068;2023-07-13T02:49:00;19.20;99.90
29917;DHT22;16786;49.466;11.068;2023-07-13T02:51:28;19.10;99.90
29917;DHT22;16786;49.466;11.068;2023-07-13T02:53:55;19.10;99.90
29917;DHT22;16786;49.466;11.068;2023-07-13T02:56:25;19.10;99.90
29917;DHT22;16786;49.466;11.068;2023-07-13T02:58:53;18.90;99.90
29917;DHT22;16786;49.466;11.068;2023-07-13T03:01:21;18.90;99.90
29917;DHT22;16786;49.466;11.068;2023-07-13T03:03:50;18.80;99.90
29917;DHT22;16786;49.466;11.068;2023-07-13T03:06:20;18.80;99.90
29917;DHT22;16786;49.466;11.068;2023-07-13T03:08:51;18.70;99.90
29917;DHT22;16786;49.466;11.068;2023-07-13T03:11:20;18.70;99.90
29917;DHT22;16786;49.466;11.068;2023-07-13T03:13:55;18.70;99.90
29917;DHT22;16786;49.466;11.068;2023-07-13T03:16:23;18.70;99.90
29917;DHT22;16786;49.466;11.068;2023-07-13T03:18:52;18.70;99.90
29917;DHT22;16786;49.466;11.068;2023-07-13T03:21:19;18.60;99.90
29917;DHT22;16786;49.466;11.068;2023-07-13T03:23:47;18.60;99.90
29917;DHT22;16786;49.466;11.068;2023-07-13T03:26:17;18.60;99.90
29917;DHT22;16786;49.466;11.068;2023-07-13T03:28:46;18.50;99.90
29917;DHT22;16786;49.466;11.068;2023-07-13T03:31:20;18.50;99.90
29917;DHT22;16786;49.466;11.068;2023-07-13T03:33:48;18.50;99.90
29917;DHT22;16786;49.466;11.068;2023-07-13T03:36:23;18.50;99.90
29917;DHT22;16786;49.466;11.068;2023-07-13T03:38:56;18.50;99.90
29917;DHT22;16786;49.466;11.068;2023-07-13T03:41:28;18.50;99.90
29917;DHT22;16786;49.466;11.068;2023-07-13T03:43:56;18.40;99.90
29917;DHT22;16786;49.466;11.068;2023-07-13T03:46:26;18.40;99.90
29917;DHT22;16786;49.466;11.068;2023-07-13T03:48:54;18.40;99.90
29917;DHT22;16786;49.466;11.068;2023-07-13T03:51:22;18.40;99.90
29917;DHT22;16786;49.466;11.068;2023-07-13T03:53:49;18.30;99.90
29917;DHT22;16786;49.466;11.068;2023-07-13T03:56:19;18.30;99.90
29917;DHT22;16786;49.466;11.068;2023-07-13T03:58:48;18.30;99.90
29917;DHT22;16786;49.466;11.068;2023-07-13T04:01:20;18.30;99.90
29917;DHT22;16786;49.466;11.068;2023-07-13T04:03:49;18.40;99.90
29917;DHT22;16786;49.466;11.068;2023-07-13T04:06:22;18.30;99.90
29917;DHT22;16786;49.466;11.068;2023-07-13T04:08:56;18.30;99.90
29917;DHT22;16786;49.466;11.068;2023-07-13T04:11:29;18.30;99.90
29917;DHT22;16786;49.466;11.068;2023-07-13T04:13:56;18.30;99.90
29917;DHT22;16786;49.466;11.068;2023-07-13T04:16:25;18.40;99.90
29917;DHT22;16786;49.466;11.068;2023-07-13T04:18:52;18.30;99.90
29917;DHT22;16786;49.466;11.068;2023-07-13T04:21:29;18.30;99.90
29917;DHT22;16786;49.466;11.068;2023-07-13T04:23:57;18.30;99.90
29917;DHT22;16786;49.466;11.068;2023-07-13T04:26:24;18.30;99.90
29917;DHT22;16786;49.466;11.068;2023-07-13T04:28:52;18.30;99.90
29917;DHT22;16786;49.466;11.068;2023-07-13T04:31:19;18.30;99.90
29917;DHT22;16786;49.466;11.068;2023-07-13T04:33:48;18.30;99.90
29917;DHT22;16786;49.466;11.068;2023-07-13T04:36:16;18.30;99.90
29917;DHT22;16786;49.466;11.068;2023-07-13T04:38:44;18.40;99.90
29917;DHT22;16786;49.466;11.068;2023-07-13T04:41:12;18.40;99.90
29917;DHT22;16786;49.466;11.068;2023-07-13T04:43:40;18.40;99.90
29917;DHT22;16786;49.466;11.068;2023-07-13T04:46:11;18.50;99.90
29917;DHT22;16786;49.466;11.068;2023-07-13T04:48:39;18.50;99.90
29917;DHT22;16786;49.466;11.068;2023-07-13T04:51:07;18.60;99.90
29917;DHT22;16786;49.466;11.068;2023-07-13T04:53:34;18.60;99.90
29917;DHT22;16786;49.466;11.068;2023-07-13T04:56:03;18.70;99.90
29917;DHT22;16786;49.466;11.068;2023-07-13T04:58:30;18.70;99.90
29917;DHT22;16786;49.466;11.068;2023-07-13T05:01:02;18.70;99.90
29917;DHT22;16786;49.466;11.068;2023-07-13T05:03:30;18.80;99.90
29917;DHT22;16786;49.466;11.068;2023-07-13T05:06:04;18.80;99.90
29917;DHT22;16786;49.466;11.068;2023-07-13T05:08:32;18.80;99.90
29917;DHT22;16786;49.466;11.068;2023-07-13T05:11:00;18.90;99.90
29917;DHT22;16786;49.466;11.068;2023-07-13T05:13:28;18.90;99.90
29917;DHT22;16786;49.466;11.068;2023-07-13T05:15:58;19.00;99.90
29917;DHT22;16786;49.466;11.068;2023-07-13T05:18:27;19.00;99.90
29917;DHT22;16786;49.466;11.068;2023-07-13T05:21:02;19.10;99.90
29917;DHT22;16786;49.466;11.068;2023-07-13T05:23:31;19.00;99.90
29917;DHT22;16786;49.466;11.068;2023-07-13T05:25:59;19.00;99.90
29917;DHT22;16786;49.466;11.068;2023-07-13T05:28:27;19.00;99.90
29917;DHT22;16786;49.466;11.068;2023-07-13T05:30:56;19.10;99.90
29917;DHT22;16786;49.466;11.068;2023-07-13T05:33:25;19.20;99.90
29917;DHT22;16786;49.466;11.068;2023-07-13T05:35:52;19.30;99.90
29917;DHT22;16786;49.466;11.068;2023-07-13T05:38:20;19.40;99.90
29917;DHT22;16786;49.466;11.068;2023-07-13T05:40:48;19.40;99.90
29917;DHT22;16786;49.466;11.068;2023-07-13T05:43:15;19.50;99.90
29917;DHT22;16786;49.466;11.068;2023-07-13T05:45:43;19.60;99.90
29917;DHT22;16786;49.466;11.068;2023-07-13T05:48:10;19.70;99.90
29917;DHT22;16786;49.466;11.068;2023-07-13T05:50:37;19.90;99.90
29917;DHT22;16786;49.466;11.068;2023-07-13T05:53:05;20.00;99.90
29917;DHT22;16786;49.466;11.068;2023-07-13T05:55:33;20.00;99.90
29917;DHT22;16786;49.466;11.068;2023-07-13T05:58:01;20.00;99.90
29917;DHT22;16786;49.466;11.068;2023-07-13T06:00:28;20.00;99.90
29917;DHT22;16786;49.466;11.068;2023-07-13T06:02:56;19.90;99.90
29917;DHT22;16786;49.466;11.068;2023-07-13T06:05:26;19.90;99.90
29917;DHT22;16786;49.466;11.068;2023-07-13T06:07:55;20.00;99.90
29917;DHT22;16786;49.466;11.068;2023-07-13T06:10:22;20.00;99.90
29917;DHT22;16786;49.466;11.068;2023-07-13T06:12:49;20.10;99.90
29917;DHT22;16786;49.466;11.068;2023-07-13T06:15:17;20.20;99.90
29917;DHT22;16786;49.466;11.068;2023-07-13T06:17:45;20.30;99.90
29917;DHT22;16786;49.466;11.068;2023-07-13T06:20:12;20.10;99.90
29917;DHT22;16786;49.466;11.068;2023-07-13T06:22:40;20.10;99.90
29917;DHT22;16786;49.466;11.068;2023-07-13T06:25:07;20.40;99.90
29917;DHT22;16786;49.466;11.068;2023-07-13T06:27:35;20.70;99.90
29917;DHT22;16786;49.466;11.068;2023-07-13T06:30:03;20.90;99.90
29917;DHT22;16786;49.466;11.068;2023-07-13T06:32:30;20.80;99.90
29917;DHT22;16786;49.466;11.068;2023-07-13T06:34:57;21.10;99.90
29917;DHT22;16786;49.466;11.068;2023-07-13T06:37:25;21.30;99.90
29917;DHT22;16786;49.466;11.068;2023-07-13T06:39:52;21.10;99.90
29917;DHT22;16786;49.466;11.068;2023-07-13T06:42:19;21.10;99.90
29917;DHT22;16786;49.466;11.068;2023-07-13T06:44:47;21.10;99.90
29917;DHT22;16786;49.466;11.068;2023-07-13T06:47:14;21.00;99.90
29917;DHT22;16786;49.466;11.068;2023-07-13T06:49:42;20.80;99.90
29917;DHT22;16786;49.466;11.068;2023-07-13T06:52:09;20.50;99.90
29917;DHT22;16786;49.466;11.068;2023-07-13T06:54:36;20.60;99.90
29917;DHT22;16786;49.466;11.068;2023-07-13T06:57:04;20.70;99.90
29917;DHT22;16786;49.466;11.068;2023-07-13T06:59:31;20.80;99.90
29917;DHT22;16786;49.466;11.068;2023-07-13T07:01:59;20.90;99.90
29917;DHT22;16786;49.466;11.068;2023-07-13T07:04:26;20.90;99.90
29917;DHT22;16786;49.466;11.068;2023-07-13T07:06:54;21.10;99.90
29917;DHT22;16786;49.466;11.068;2023-07-13T07:09:25;21.30;99.90
29917;DHT22;16786;49.466;11.068;2023-07-13T07:11:52;21.40;99.90
29917;DHT22;16786;49.466;11.068;2023-07-13T07:14:30;21.50;99.90
29917;DHT22;16786;49.466;11.068;2023-07-13T07:16:58;21.30;99.90
29917;DHT22;16786;49.466;11.068;2023-07-13T07:19:29;21.50;99.90
29917;DHT22;16786;49.466;11.068;2023-07-13T07:21:56;21.60;99.90
29917;DHT22;16786;49.466;11.068;2023-07-13T07:24:24;21.50;99.90
29917;DHT22;16786;49.466;11.068;2023-07-13T07:26:51;21.60;99.90
29917;DHT22;16786;49.466;11.068;2023-07-13T07:29:21;21.60;99.90
29917;DHT22;16786;49.466;11.068;2023-07-13T07:31:53;21.70;99.90
29917;DHT22;16786;49.466;11.068;2023-07-13T07:34:24;21.70;99.90
29917;DHT22;16786;49.466;11.068;2023-07-13T07:36:52;21.70;99.90
29917;DHT22;16786;49.466;11.068;2023-07-13T07:39:23;21.50;99.90
29917;DHT22;16786;49.466;11.068;2023-07-13T07:41:50;21.60;99.90
29917;DHT22;16786;49.466;11.068;2023-07-13T07:44:20;21.60;99.90
29917;DHT22;16786;49.466;11.068;2023-07-13T07:46:48;21.40;99.90
29917;DHT22;16786;49.466;11.068;2023-07-13T07:49:16;21.50;99.90
29917;DHT22;16786;49.466;11.068;2023-07-13T07:51:43;21.50;99.90
29917;DHT22;16786;49.466;11.068;2023-07-13T07:54:11;21.60;99.90
29917;DHT22;16786;49.466;11.068;2023-07-13T07:56:48;21.70;99.90
29917;DHT22;16786;49.466;11.068;2023-07-13T07:59:37;21.70;99.90
29917;DHT22;16786;49.466;11.068;2023-07-13T08:02:09;21.80;99.90
29917;DHT22;16786;49.466;11.068;2023-07-13T08:04:57;21.80;99.90
29917;DHT22;16786;49.466;11.068;2023-07-13T08:07:27;21.90;99.90
29917;DHT22;16786;49.466;11.068;2023-07-13T08:09:57;22.00;99.90
29917;DHT22;16786;49.466;11.068;2023-07-13T08:12:24;22.00;99.90
29917;DHT22;16786;49.466;11.068;2023-07-13T08:14:54;22.00;99.90
29917;DHT22;16786;49.466;11.068;2023-07-13T08:17:25;22.10;99.90
29917;DHT22;16786;49.466;11.068;2023-07-13T08:19:53;22.10;99.90
29917;DHT22;16786;49.466;11.068;2023-07-13T08:22:20;22.10;99.90
29917;DHT22;16786;49.466;11.068;2023-07-13T08:24:47;22.10;99.90
29917;DHT22;16786;49.466;11.068;2023-07-13T08:27:23;22.20;99.90
29917;DHT22;16786;49.466;11.068;2023-07-13T08:29:52;22.20;99.90
29917;DHT22;16786;49.466;11.068;2023-07-13T08:32:20;22.20;99.90
29917;DHT22;16786;49.466;11.068;2023-07-13T08:34:50;22.30;99.90
29917;DHT22;16786;49.466;11.068;2023-07-13T08:37:18;22.10;99.90
29917;DHT22;16786;49.466;11.068;2023-07-13T08:39:45;22.10;99.90
29917;DHT22;16786;49.466;11.068;2023-07-13T08:47:24;22.20;99.90
29917;DHT22;16786;49.466;11.068;2023-07-13T08:49:52;22.10;99.90
29917;DHT22;16786;49.466;11.068;2023-07-13T08:52:35;22.20;99.90
29917;DHT22;16786;49.466;11.068;2023-07-13T08:55:21;22.40;99.90
29917;DHT22;16786;49.466;11.068;2023-07-13T08:57:54;22.60;99.90
29917;DHT22;16786;49.466;11.068;2023-07-13T09:00:25;22.40;99.90
29917;DHT22;16786;49.466;11.068;2023-07-13T09:02:59;22.40;99.90
29917;DHT22;16786;49.466;11.068;2023-07-13T09:05:40;22.20;99.90
29917;DHT22;16786;49.466;11.068;2023-07-13T09:08:12;22.40;99.90
29917;DHT22;16786;49.466;11.068;2023-07-13T09:16:13;22.50;99.90
29917;DHT22;16786;49.466;11.068;2023-07-13T09:18:45;22.60;99.90
29917;DHT22;16786;49.466;11.068;2023-07-13T09:21:30;22.60;99.90
29917;DHT22;16786;49.466;11.068;2023-07-13T09:26:49;22.70;99.90
29917;DHT22;16786;49.466;11.068;2023-07-13T09:29:33;22.70;99.90
29917;DHT22;16786;49.466;11.068;2023-07-13T09:32:04;22.70;99.90
29917;DHT22;16786;49.466;11.068;2023-07-13T09:34:33;22.90;99.90
29917;DHT22;16786;49.466;11.068;2023-07-13T09:37:01;23.20;99.90
29917;DHT22;16786;49.466;11.068;2023-07-13T09:39:34;23.20;99.30
29917;DHT22;16786;49.466;11.068;2023-07-13T09:47:24;23.40;96.10
29917;DHT22;16786;49.466;11.068;2023-07-13T09:50:03;23.40;95.80
29917;DHT22;16786;49.466;11.068;2023-07-13T09:52:48;23.50;95.00
29917;DHT22;16786;49.466;11.068;2023-07-13T09:55:35;23.60;94.20
29917;DHT22;16786;49.466;11.068;2023-07-13T09:58:16;23.70;93.60
29917;DHT22;16786;49.466;11.068;2023-07-13T10:00:57;23.80;93.10
29917;DHT22;16786;49.466;11.068;2023-07-13T10:03:32;23.90;93.00
29917;DHT22;16786;49.466;11.068;2023-07-13T10:06:25;24.00;93.10
29917;DHT22;16786;49.466;11.068;2023-07-13T10:08:56;24.10;92.30
29917;DHT22;16786;49.466;11.068;2023-07-13T10:11:29;24.20;92.70
29917;DHT22;16786;49.466;11.068;2023-07-13T10:14:02;24.10;92.00
29917;DHT22;16786;49.466;11.068;2023-07-13T10:16:32;24.00;91.60
29917;DHT22;16786;49.466;11.068;2023-07-13T10:19:14;24.10;91.40
29917;DHT22;16786;49.466;11.068;2023-07-13T10:21:56;24.20;91.50
29917;DHT22;16786;49.466;11.068;2023-07-13T10:24:36;24.40;91.70
29917;DHT22;16786;49.466;11.068;2023-07-13T10:27:29;24.70;91.50
29917;DHT22;16786;49.466;11.068;2023-07-13T10:30:21;25.00;90.80
29917;DHT22;16786;49.466;11.068;2023-07-13T10:32:50;24.80;90.60
29917;DHT22;16786;49.466;11.068;2023-07-13T10:35:19;24.70;90.10
29917;DHT22;16786;49.466;11.068;2023-07-13T10:38:03;24.60;90.20
29917;DHT22;16786;49.466;11.068;2023-07-13T10:41:03;24.90;90.00
29917;DHT22;16786;49.466;11.068;2023-07-13T10:43:39;25.00;90.20
29917;DHT22;16786;49.466;11.068;2023-07-13T10:46:11;25.30;90.30
29917;DHT22;16786;49.466;11.068;2023-07-13T10:48:41;25.40;88.70
29917;DHT22;16786;49.466;11.068;2023-07-13T10:51:13;25.40;88.10
29917;DHT22;16786;49.466;11.068;2023-07-13T10:53:41;25.50;88.10
29917;DHT22;16786;49.466;11.068;2023-07-13T10:56:28;25.70;86.30
29917;DHT22;16786;49.466;11.068;2023-07-13T11:01:55;26.40;85.10
29917;DHT22;16786;49.466;11.068;2023-07-13T11:04:25;26.80;84.40
29917;DHT22;16786;49.466;11.068;2023-07-13T11:07:16;26.70;84.40
29917;DHT22;16786;49.466;11.068;2023-07-13T11:09:50;26.10;84.70
29917;DHT22;16786;49.466;11.068;2023-07-13T11:12:26;26.30;85.10
29917;DHT22;16786;49.466;11.068;2023-07-13T11:22:46;26.20;83.00
29917;DHT22;16786;49.466;11.068;2023-07-13T11:28:17;26.60;81.90
29917;DHT22;16786;49.466;11.068;2023-07-13T11:33:20;27.60;78.10
29917;DHT22;16786;49.466;11.068;2023-07-13T11:36:19;27.40;78.40
29917;DHT22;16786;49.466;11.068;2023-07-13T11:38:59;27.30;79.10
29917;DHT22;16786;49.466;11.068;2023-07-13T11:41:31;27.50;79.50
29917;DHT22;16786;49.466;11.068;2023-07-13T11:44:17;27.50;79.30
29917;DHT22;16786;49.466;11.068;2023-07-13T11:46:47;27.50;80.40
29917;DHT22;16786;49.466;11.068;2023-07-13T11:49:21;27.40;79.00
29917;DHT22;16786;49.466;11.068;2023-07-13T11:51:51;27.40;78.20
29917;DHT22;16786;49.466;11.068;2023-07-13T11:54:46;27.40;79.20
29917;DHT22;16786;49.466;11.068;2023-07-13T11:59:45;27.60;77.90
29917;DHT22;16786;49.466;11.068;2023-07-13T12:02:25;27.20;78.70
29917;DHT22;16786;49.466;11.068;2023-07-13T12:04:55;26.70;79.50
29917;DHT22;16786;49.466;11.068;2023-07-13T12:07:23;26.80;80.60
29917;DHT22;16786;49.466;11.068;2023-07-13T12:09:50;26.80;80.10
29917;DHT22;16786;49.466;11.068;2023-07-13T12:12:21;26.80;80.60
29917;DHT22;16786;49.466;11.068;2023-07-13T12:14:52;26.70;80.40
29917;DHT22;16786;49.466;11.068;2023-07-13T12:17:21;27.00;78.80
29917;DHT22;16786;49.466;11.068;2023-07-13T12:19:51;27.30;78.50
29917;DHT22;16786;49.466;11.068;2023-07-13T12:22:20;27.70;78.80
29917;DHT22;16786;49.466;11.068;2023-07-13T12:24:48;28.90;77.30
29917;DHT22;16786;49.466;11.068;2023-07-13T12:27:24;29.10;74.90
29917;DHT22;16786;49.466;11.068;2023-07-13T12:30:20;28.80;74.40
29917;DHT22;16786;49.466;11.068;2023-07-13T12:33:11;29.20;74.30
29917;DHT22;16786;49.466;11.068;2023-07-13T12:35:59;30.20;73.70
29917;DHT22;16786;49.466;11.068;2023-07-13T12:38:27;30.70;71.40
29917;DHT22;16786;49.466;11.068;2023-07-13T12:40:54;30.70;69.90
29917;DHT22;16786;49.466;11.068;2023-07-13T12:43:22;31.20;69.40
29917;DHT22;16786;49.466;11.068;2023-07-13T12:46:04;30.90;69.70
29917;DHT22;16786;49.466;11.068;2023-07-13T12:48:38;30.30;69.20
29917;DHT22;16786;49.466;11.068;2023-07-13T12:51:15;29.40;71.40
29917;DHT22;16786;49.466;11.068;2023-07-13T12:53:58;28.80;71.30
29917;DHT22;16786;49.466;11.068;2023-07-13T12:56:28;28.30;72.20
29917;DHT22;16786;49.466;11.068;2023-07-13T12:59:01;28.00;72.80
29917;DHT22;16786;49.466;11.068;2023-07-13T13:01:29;27.60;73.90
29917;DHT22;16786;49.466;11.068;2023-07-13T13:04:01;27.60;73.10
29917;DHT22;16786;49.466;11.068;2023-07-13T13:06:31;28.00;73.00
29917;DHT22;16786;49.466;11.068;2023-07-13T13:08:59;28.70;71.80
29917;DHT22;16786;49.466;11.068;2023-07-13T13:11:28;29.30;71.50
29917;DHT22;16786;49.466;11.068;2023-07-13T13:13:57;29.70;71.40
29917;DHT22;16786;49.466;11.068;2023-07-13T13:16:35;30.40;70.70
29917;DHT22;16786;49.466;11.068;2023-07-13T13:19:24;29.70;70.50
29917;DHT22;16786;49.466;11.068;2023-07-13T13:21:54;29.40;71.10
29917;DHT22;16786;49.466;11.068;2023-07-13T13:24:26;29.10;72.20
29917;DHT22;16786;49.466;11.068;2023-07-13T13:26:54;29.70;70.60
29917;DHT22;16786;49.466;11.068;2023-07-13T13:29:25;30.50;70.00
29917;DHT22;16786;49.466;11.068;2023-07-13T13:31:55;30.00;68.80
29917;DHT22;16786;49.466;11.068;2023-07-13T13:34:24;29.80;69.10
29917;DHT22;16786;49.466;11.068;2023-07-13T13:36:53;29.80;68.70
29917;DHT22;16786;49.466;11.068;2023-07-13T13:39:32;30.10;68.70
29917;DHT22;16786;49.466;11.068;2023-07-13T13:42:01;30.00;67.90
29917;DHT22;16786;49.466;11.068;2023-07-13T13:44:28;30.30;68.60
29917;DHT22;16786;49.466;11.068;2023-07-13T13:46:56;30.60;68.70
29917;DHT22;16786;49.466;11.068;2023-07-13T13:49:25;31.80;65.10
29917;DHT22;16786;49.466;11.068;2023-07-13T13:51:53;31.50;64.90
29917;DHT22;16786;49.466;11.068;2023-07-13T13:54:22;31.10;64.10
29917;DHT22;16786;49.466;11.068;2023-07-13T13:56:51;31.00;64.60
29917;DHT22;16786;49.466;11.068;2023-07-13T13:59:19;30.90;64.60
29917;DHT22;16786;49.466;11.068;2023-07-13T14:01:47;30.30;65.90
29917;DHT22;16786;49.466;11.068;2023-07-13T14:04:19;30.60;66.40
29917;DHT22;16786;49.466;11.068;2023-07-13T14:06:47;30.90;65.30
29917;DHT22;16786;49.466;11.068;2023-07-13T14:09:17;30.80;64.50
29917;DHT22;16786;49.466;11.068;2023-07-13T14:11:46;29.80;65.90
29917;DHT22;16786;49.466;11.068;2023-07-13T14:14:23;29.40;66.40
29917;DHT22;16786;49.466;11.068;2023-07-13T14:16:51;29.00;67.50
29917;DHT22;16786;49.466;11.068;2023-07-13T14:19:22;28.80;68.30
29917;DHT22;16786;49.466;11.068;2023-07-13T14:21:50;28.30;68.20
29917;DHT22;16786;49.466;11.068;2023-07-13T14:24:20;27.90;68.60
29917;DHT22;16786;49.466;11.068;2023-07-13T14:26:48;27.80;69.40
29917;DHT22;16786;49.466;11.068;2023-07-13T14:29:19;27.90;69.70
29917;DHT22;16786;49.466;11.068;2023-07-13T14:31:51;29.80;67.10
29917;DHT22;16786;49.466;11.068;2023-07-13T14:34:18;32.40;62.60
29917;DHT22;16786;49.466;11.068;2023-07-13T14:36:48;32.20;61.70
29917;DHT22;16786;49.466;11.068;2023-07-13T14:39:23;33.30;60.60
29917;DHT22;16786;49.466;11.068;2023-07-13T14:41:52;34.20;59.00
29917;DHT22;16786;49.466;11.068;2023-07-13T14:44:26;35.80;56.10
29917;DHT22;16786;49.466;11.068;2023-07-13T14:46:53;35.80;55.00
29917;DHT22;16786;49.466;11.068;2023-07-13T14:51:58;31.70;58.40
29917;DHT22;16786;49.466;11.068;2023-07-13T14:54:26;31.90;58.20
29917;DHT22;16786;49.466;11.068;2023-07-13T14:56:53;32.30;58.20
29917;DHT22;16786;49.466;11.068;2023-07-13T14:59:21;33.30;57.20
29917;DHT22;16786;49.466;11.068;2023-07-13T15:01:49;35.20;54.80
29917;DHT22;16786;49.466;11.068;2023-07-13T15:04:17;36.90;53.40
29917;DHT22;16786;49.466;11.068;2023-07-13T15:06:57;35.50;53.10
29917;DHT22;16786;49.466;11.068;2023-07-13T15:09:26;33.60;56.00
29917;DHT22;16786;49.466;11.068;2023-07-13T15:11:55;32.70;56.00
29917;DHT22;16786;49.466;11.068;2023-07-13T15:14:22;33.40;55.40
29917;DHT22;16786;49.466;11.068;2023-07-13T15:16:54;34.40;54.20
29917;DHT22;16786;49.466;11.068;2023-07-13T15:19:23;34.60;53.50
29917;DHT22;16786;49.466;11.068;2023-07-13T15:21:53;32.70;55.10
29917;DHT22;16786;49.466;11.068;2023-07-13T15:24:21;32.40;56.20
29917;DHT22;16786;49.466;11.068;2023-07-13T15:26:49;34.80;54.10
29917;DHT22;16786;49.466;11.068;2023-07-13T15:29:17;35.20;53.00
29917;DHT22;16786;49.466;11.068;2023-07-13T15:31:45;35.10;52.90
29917;DHT22;16786;49.466;11.068;2023-07-13T15:34:15;34.00;53.20
29917;DHT22;16786;49.466;11.068;2023-07-13T15:36:43;32.60;54.30
29917;DHT22;16786;49.466;11.068;2023-07-13T15:39:15;32.60;54.60
29917;DHT22;16786;49.466;11.068;2023-07-13T15:41:46;32.00;55.40
29917;DHT22;16786;49.466;11.068;2023-07-13T15:44:31;31.40;56.60
29917;DHT22;16786;49.466;11.068;2023-07-13T15:46:58;30.50;57.60
29917;DHT22;16786;49.466;11.068;2023-07-13T15:49:27;30.10;58.30
29917;DHT22;16786;49.466;11.068;2023-07-13T15:51:55;32.30;56.80
29917;DHT22;16786;49.466;11.068;2023-07-13T15:54:23;33.70;54.70
29917;DHT22;16786;49.466;11.068;2023-07-13T15:56:54;34.20;53.70
29917;DHT22;16786;49.466;11.068;2023-07-13T15:59:21;36.00;52.30
29917;DHT22;16786;49.466;11.068;2023-07-13T16:01:49;35.60;52.00
29917;DHT22;16786;49.466;11.068;2023-07-13T16:04:17;35.10;52.00
29917;DHT22;16786;49.466;11.068;2023-07-13T16:06:47;34.80;52.30
29917;DHT22;16786;49.466;11.068;2023-07-13T16:09:22;33.10;53.70
29917;DHT22;16786;49.466;11.068;2023-07-13T16:11:51;32.00;55.50
29917;DHT22;16786;49.466;11.068;2023-07-13T16:14:19;31.60;55.60
29917;DHT22;16786;49.466;11.068;2023-07-13T16:16:48;33.20;54.60
29917;DHT22;16786;49.466;11.068;2023-07-13T16:19:17;32.90;54.90